createdAt,value
2023-03-05T00:01:29.969Z,2.58
2023-03-05T00:03:56.268Z,2.68
2023-03-05T00:06:22.584Z,2.72
2023-03-05T00:08:48.845Z,2.69
2023-03-05T00:11:15.091Z,2.62
2023-03-05T00:14:01.331Z,2.55
2023-03-05T00:16:27.602Z,2.59
2023-03-05T00:18:53.840Z,2.57
2023-03-05T00:21:20.102Z,2.54
2023-03-05T00:23:46.333Z,2.66
2023-03-05T00:26:12.553Z,2.76
2023-03-05T00:28:38.816Z,2.77
2023-03-05T00:31:05.082Z,2.79
2023-03-05T00:33:31.320Z,2.68
2023-03-05T00:35:57.649Z,2.73
2023-03-05T00:38:23.889Z,2.68
2023-03-05T00:40:50.135Z,2.66
2023-03-05T00:43:16.401Z,2.60
2023-03-05T00:45:42.698Z,2.62
2023-03-05T00:48:08.951Z,2.51
2023-03-05T00:50:35.232Z,2.57
2023-03-05T00:53:01.576Z,2.52
2023-03-05T00:55:27.836Z,2.46
2023-03-05T00:57:54.231Z,2.40
2023-03-05T01:00:20.497Z,2.45
2023-03-05T01:02:46.819Z,2.52
2023-03-05T01:05:13.147Z,2.51
2023-03-05T01:07:39.424Z,2.48
2023-03-05T01:10:05.669Z,2.44
2023-03-05T01:12:31.933Z,2.45
2023-03-05T01:14:58.228Z,2.40
2023-03-05T01:17:24.484Z,2.37
2023-03-05T01:19:50.748Z,2.28
2023-03-05T01:22:16.985Z,2.25
2023-03-05T01:24:43.541Z,2.22
2023-03-05T01:27:09.844Z,2.19
2023-03-05T01:29:36.124Z,2.17
2023-03-05T01:32:02.457Z,2.14
2023-03-05T01:34:28.785Z,2.17
2023-03-05T01:36:55.064Z,2.17
2023-03-05T01:39:21.321Z,2.12
2023-03-05T01:41:47.570Z,2.10
2023-03-05T01:44:13.813Z,2.06
2023-03-05T01:46:40.061Z,2.07
2023-03-05T01:49:06.298Z,2.02
2023-03-05T01:51:32.538Z,2.01
2023-03-05T01:53:58.777Z,1.98
2023-03-05T01:56:25.189Z,2.02
2023-03-05T01:58:51.442Z,1.92
2023-03-05T02:01:17.742Z,1.99
2023-03-05T02:03:44.056Z,1.94
2023-03-05T02:06:10.322Z,1.87
2023-03-05T02:08:36.557Z,1.93
2023-03-05T02:11:02.804Z,1.96
2023-03-05T02:13:29.068Z,1.83
2023-03-05T02:15:55.314Z,1.82
2023-03-05T02:18:21.556Z,1.83
2023-03-05T02:20:47.800Z,1.90
2023-03-05T02:23:14.043Z,1.81
2023-03-05T02:25:40.335Z,1.77
2023-03-05T02:28:06.668Z,1.66
2023-03-05T02:30:32.964Z,1.60
2023-03-05T02:32:59.210Z,1.63
2023-03-05T02:35:25.561Z,1.68
2023-03-05T02:37:51.934Z,1.68
2023-03-05T02:40:18.163Z,1.64
2023-03-05T02:42:44.431Z,1.62
2023-03-05T02:45:10.665Z,1.59
2023-03-05T02:47:36.904Z,1.65
2023-03-05T02:50:03.177Z,1.59
2023-03-05T02:52:29.497Z,1.63
2023-03-05T02:54:55.758Z,1.68
2023-03-05T02:57:22.011Z,1.72
2023-03-05T02:59:48.280Z,1.69
2023-03-05T03:02:14.548Z,1.69
2023-03-05T03:04:40.784Z,1.74
2023-03-05T03:07:07.050Z,1.80
2023-03-05T03:09:33.309Z,1.84
2023-03-05T03:11:59.566Z,1.86
2023-03-05T03:14:25.809Z,1.82
2023-03-05T03:16:52.093Z,1.88
2023-03-05T03:19:18.367Z,1.83
2023-03-05T03:21:44.606Z,1.74
2023-03-05T03:24:10.853Z,1.67
2023-03-05T03:26:37.123Z,1.62
2023-03-05T03:29:03.439Z,1.61
2023-03-05T03:31:29.670Z,1.45
2023-03-05T03:33:55.947Z,1.46
2023-03-05T03:36:22.212Z,1.45
2023-03-05T03:38:48.483Z,1.49
2023-03-05T03:41:14.743Z,1.47
2023-03-05T03:43:40.992Z,1.62
2023-03-05T03:46:07.366Z,1.67
2023-03-05T03:48:33.722Z,1.70
2023-03-05T03:50:59.977Z,1.82
2023-03-05T03:53:26.259Z,1.95
2023-03-05T03:55:52.524Z,2.05
2023-03-05T03:58:18.811Z,2.15
2023-03-05T04:00:45.106Z,2.21
2023-03-05T04:03:11.382Z,2.24
2023-03-05T04:05:37.656Z,2.27
2023-03-05T04:08:03.917Z,2.15
2023-03-05T04:10:30.182Z,2.15
2023-03-05T04:12:56.466Z,2.24
2023-03-05T04:15:22.767Z,2.20
2023-03-05T04:17:49.029Z,2.34
2023-03-05T04:20:15.287Z,2.47
2023-03-05T04:22:41.529Z,2.54
2023-03-05T04:25:07.790Z,2.45
2023-03-05T04:27:34.131Z,2.51
2023-03-05T04:30:00.471Z,2.58
2023-03-05T04:32:26.805Z,2.55
2023-03-05T04:34:53.143Z,2.61
2023-03-05T04:37:19.446Z,2.70
2023-03-05T04:39:45.738Z,2.69
2023-03-05T04:42:12.030Z,2.53
2023-03-05T04:44:38.319Z,2.42
2023-03-05T04:47:04.550Z,2.26
2023-03-05T04:49:30.772Z,2.28
2023-03-05T04:51:57.138Z,2.25
2023-03-05T04:54:23.375Z,2.21
2023-03-05T04:56:49.614Z,2.08
2023-03-05T04:59:15.857Z,2.04
2023-03-05T05:01:42.184Z,2.04
2023-03-05T05:04:08.517Z,1.95
2023-03-05T05:06:34.886Z,1.86
2023-03-05T05:09:01.157Z,1.97
2023-03-05T05:11:27.394Z,2.06
2023-03-05T05:13:53.658Z,2.07
2023-03-05T05:16:19.966Z,2.13
2023-03-05T05:18:46.270Z,2.14
2023-03-05T05:21:12.513Z,2.21
2023-03-05T05:23:38.763Z,2.23
2023-03-05T05:26:05.000Z,2.20
2023-03-05T05:28:31.274Z,2.32
2023-03-05T05:30:57.534Z,2.38
2023-03-05T05:33:23.773Z,2.39
2023-03-05T05:35:50.052Z,2.45
2023-03-05T05:38:16.356Z,2.43
2023-03-05T05:40:42.606Z,2.52
2023-03-05T05:43:08.902Z,2.60
2023-03-05T05:45:35.300Z,2.65
2023-03-05T05:48:01.627Z,2.67
2023-03-05T05:50:27.901Z,2.76
2023-03-05T05:52:54.173Z,2.73
2023-03-05T05:55:20.417Z,2.80
2023-03-05T05:57:46.706Z,2.84
2023-03-05T06:00:13.016Z,2.86
2023-03-05T06:02:39.341Z,2.79
2023-03-05T06:05:05.659Z,2.44
2023-03-05T06:07:31.934Z,2.26
2023-03-05T06:09:58.199Z,2.13
2023-03-05T06:12:24.489Z,2.07
2023-03-05T06:14:50.794Z,2.13
2023-03-05T06:17:28.760Z,2.17
2023-03-05T06:19:56.581Z,2.22
2023-03-05T06:22:22.854Z,2.31
2023-03-05T06:24:49.105Z,2.32
2023-03-05T06:27:15.644Z,2.24
2023-03-05T06:29:41.878Z,2.19
2023-03-05T06:32:08.145Z,2.34
2023-03-05T06:34:34.407Z,2.31
2023-03-05T06:37:00.652Z,2.37
2023-03-05T06:39:28.309Z,2.29
2023-03-05T06:41:54.661Z,2.24
2023-03-05T06:44:20.924Z,2.18
2023-03-05T06:46:47.187Z,2.17
2023-03-05T06:49:13.584Z,2.21
2023-03-05T06:51:39.897Z,2.20
2023-03-05T06:54:06.174Z,2.28
2023-03-05T06:56:32.466Z,2.32
2023-03-05T06:58:58.785Z,2.37
2023-03-05T07:01:25.091Z,2.11
2023-03-05T07:03:51.369Z,1.91
2023-03-05T07:06:17.617Z,1.83
2023-03-05T07:08:43.872Z,1.97
2023-03-05T07:11:10.175Z,1.99
2023-03-05T07:13:36.469Z,2.07
2023-03-05T07:16:02.728Z,2.11
2023-03-05T07:18:29.064Z,2.26
2023-03-05T07:20:55.405Z,2.32
2023-03-05T07:23:24.185Z,2.38
2023-03-05T07:25:50.473Z,2.43
2023-03-05T07:28:16.753Z,2.44
2023-03-05T07:30:43.848Z,2.37
2023-03-05T07:33:10.112Z,2.41
2023-03-05T07:35:36.435Z,2.47
2023-03-05T07:38:02.716Z,2.50
2023-03-05T07:40:28.972Z,2.47
2023-03-05T07:42:55.215Z,2.49
2023-03-05T07:45:21.444Z,2.52
2023-03-05T07:47:47.737Z,2.56
2023-03-05T07:50:14.034Z,2.51
2023-03-05T07:52:40.303Z,2.65
2023-03-05T07:55:06.603Z,2.74
2023-03-05T07:57:32.905Z,2.76
2023-03-05T07:59:59.168Z,2.87
2023-03-05T08:02:25.532Z,2.80
2023-03-05T08:04:51.865Z,2.93
2023-03-05T08:07:18.151Z,2.94
2023-03-05T08:09:44.437Z,3.00
2023-03-05T08:12:10.749Z,3.09
2023-03-05T08:14:37.013Z,3.28
2023-03-05T08:17:03.268Z,3.38
2023-03-05T08:19:29.541Z,3.53
2023-03-05T08:21:56.522Z,3.79
2023-03-05T08:24:22.801Z,3.95
2023-03-05T08:26:49.090Z,4.10
2023-03-05T08:29:15.438Z,4.21
2023-03-05T08:31:41.759Z,4.24
2023-03-05T08:34:08.076Z,4.30
2023-03-05T08:36:34.327Z,4.34
2023-03-05T08:39:00.579Z,4.43
2023-03-05T08:41:26.896Z,4.55
2023-03-05T08:43:53.205Z,4.65
2023-03-05T08:46:19.479Z,4.65
2023-03-05T08:48:45.728Z,4.68
2023-03-05T08:51:11.995Z,4.75
2023-03-05T08:53:38.233Z,4.72
2023-03-05T08:56:04.499Z,4.78
2023-03-05T08:58:30.819Z,4.85
2023-03-05T09:00:57.113Z,4.75
2023-03-05T09:03:23.554Z,4.75
2023-03-05T09:05:49.869Z,4.69
2023-03-05T09:08:16.110Z,4.68
2023-03-05T09:10:42.384Z,4.44
2023-03-05T09:13:08.737Z,4.62
2023-03-05T09:15:35.010Z,4.70
2023-03-05T09:18:01.319Z,4.65
2023-03-05T09:20:27.595Z,4.45
2023-03-05T09:22:53.915Z,4.57
2023-03-05T09:25:20.159Z,4.69
2023-03-05T09:27:46.435Z,4.72
2023-03-05T09:30:12.709Z,4.87
2023-03-05T09:32:39.017Z,4.72
2023-03-05T09:35:05.344Z,4.77
2023-03-05T09:37:31.628Z,4.87
2023-03-05T09:39:57.869Z,4.92
2023-03-05T09:42:24.115Z,5.04
2023-03-05T09:44:50.407Z,5.16
2023-03-05T09:47:16.660Z,5.25
2023-03-05T09:49:42.950Z,5.27
2023-03-05T09:52:09.250Z,5.30
2023-03-05T09:54:35.537Z,5.47
2023-03-05T09:57:01.853Z,5.57
2023-03-05T09:59:28.153Z,5.43
2023-03-05T10:01:54.382Z,5.27
2023-03-05T10:04:20.747Z,5.00
2023-03-05T10:06:47.051Z,5.15
2023-03-05T10:09:13.335Z,5.09
2023-03-05T10:11:39.581Z,5.38
2023-03-05T10:14:05.827Z,5.60
2023-03-05T10:16:32.170Z,5.80
2023-03-05T10:18:58.453Z,5.90
2023-03-05T10:21:24.734Z,5.96
2023-03-05T10:23:51.984Z,6.11
2023-03-05T10:26:19.965Z,6.19
2023-03-05T10:28:46.253Z,6.18
2023-03-05T10:31:14.684Z,6.12
2023-03-05T10:33:40.911Z,6.33
2023-03-05T10:36:07.194Z,6.38
2023-03-05T10:38:33.446Z,6.44
2023-03-05T10:40:59.752Z,6.53
2023-03-05T10:43:26.055Z,6.61
2023-03-05T10:45:52.376Z,6.68
2023-03-05T10:48:18.668Z,6.63
2023-03-05T10:50:45.005Z,6.67
2023-03-05T10:53:11.278Z,6.58
2023-03-05T10:55:37.545Z,6.78
2023-03-05T10:58:03.906Z,6.70
2023-03-05T11:00:30.138Z,6.56
2023-03-05T11:02:56.392Z,6.39
2023-03-05T11:05:22.753Z,6.59
2023-03-05T11:07:49.033Z,6.53
2023-03-05T11:10:15.284Z,6.42
2023-03-05T11:12:41.565Z,6.43
2023-03-05T11:15:07.823Z,6.44
2023-03-05T11:17:34.086Z,6.44
2023-03-05T11:20:00.381Z,6.64
2023-03-05T11:22:26.629Z,6.59
2023-03-05T11:24:52.884Z,6.65
2023-03-05T11:27:19.229Z,6.79
2023-03-05T11:29:45.472Z,6.59
2023-03-05T11:32:11.764Z,6.77
2023-03-05T11:34:38.139Z,6.63
2023-03-05T11:37:04.369Z,6.59
2023-03-05T11:39:30.628Z,6.71
2023-03-05T11:41:56.896Z,6.72
2023-03-05T11:44:23.189Z,6.93
2023-03-05T11:46:49.495Z,7.00
2023-03-05T11:49:16.043Z,7.14
2023-03-05T11:51:42.357Z,7.16
2023-03-05T11:54:08.593Z,7.15
2023-03-05T11:56:34.906Z,7.35
2023-03-05T11:59:01.254Z,6.92
2023-03-05T12:01:27.516Z,6.95
2023-03-05T12:03:53.898Z,7.15
2023-03-05T12:06:20.186Z,6.98
2023-03-05T12:08:46.423Z,7.22
2023-03-05T12:11:12.717Z,7.44
2023-03-05T12:13:41.685Z,7.34
2023-03-05T12:16:08.682Z,7.63
2023-03-05T12:18:34.917Z,7.73
2023-03-05T12:21:01.161Z,7.91
2023-03-05T12:23:27.397Z,8.03
2023-03-05T12:25:53.645Z,8.02
2023-03-05T12:28:19.922Z,7.85
2023-03-05T12:30:46.182Z,7.91
2023-03-05T12:33:12.482Z,7.78
2023-03-05T12:35:39.449Z,7.80
2023-03-05T12:38:24.404Z,7.95
2023-03-05T12:40:54.270Z,7.91
2023-03-05T12:43:20.568Z,7.77
2023-03-05T12:45:46.812Z,7.80
2023-03-05T12:48:13.160Z,7.71
2023-03-05T12:50:39.495Z,7.88
2023-03-05T12:53:05.744Z,7.97
2023-03-05T12:55:32.012Z,8.03
2023-03-05T12:57:58.285Z,8.23
2023-03-05T13:00:24.527Z,8.17
2023-03-05T13:02:50.783Z,8.17
2023-03-05T13:05:19.371Z,8.31
2023-03-05T13:07:45.605Z,8.19
2023-03-05T13:10:11.889Z,8.37
2023-03-05T13:12:38.258Z,8.35
2023-03-05T13:15:04.509Z,8.58
2023-03-05T13:17:30.774Z,8.62
2023-03-05T13:19:57.027Z,8.73
2023-03-05T13:22:23.286Z,8.59
2023-03-05T13:24:49.520Z,8.64
2023-03-05T13:27:15.860Z,8.73
2023-03-05T13:29:42.084Z,8.67
2023-03-05T13:32:08.413Z,8.53
2023-03-05T13:34:46.757Z,8.45
2023-03-05T13:37:13.670Z,8.43
2023-03-05T13:39:39.957Z,8.49
2023-03-05T13:42:06.194Z,8.65
2023-03-05T13:44:32.417Z,8.41
2023-03-05T13:46:59.721Z,7.98
2023-03-05T13:49:26.018Z,8.15
2023-03-05T13:51:52.271Z,7.90
2023-03-05T13:54:18.905Z,8.10
2023-03-05T13:56:45.205Z,7.93
2023-03-05T13:59:11.456Z,7.58
2023-03-05T14:01:37.698Z,7.39
2023-03-05T14:04:04.030Z,7.55
2023-03-05T14:06:30.251Z,7.67
2023-03-05T14:08:58.471Z,7.77
2023-03-05T14:11:25.632Z,7.92
2023-03-05T14:13:52.008Z,7.60
2023-03-05T14:16:18.341Z,7.86
2023-03-05T14:18:44.651Z,8.07
2023-03-05T14:21:10.897Z,8.28
2023-03-05T14:23:37.261Z,8.21
2023-03-05T14:26:03.501Z,8.09
2023-03-05T14:28:29.749Z,8.23
2023-03-05T14:30:56.080Z,8.28
2023-03-05T14:33:22.417Z,8.34
2023-03-05T14:35:48.724Z,8.36
2023-03-05T14:38:15.003Z,8.43
2023-03-05T14:40:41.231Z,8.46
2023-03-05T14:43:07.570Z,8.52
2023-03-05T14:45:33.875Z,8.58
2023-03-05T14:48:00.458Z,8.51
2023-03-05T14:50:26.793Z,8.59
2023-03-05T14:52:53.059Z,8.66
2023-03-05T14:55:19.288Z,8.71
2023-03-05T14:57:45.556Z,8.72
2023-03-05T15:00:11.907Z,8.77
2023-03-05T15:02:38.175Z,8.76
2023-03-05T15:05:04.472Z,8.77
2023-03-05T15:07:30.740Z,8.74
2023-03-05T15:09:56.980Z,8.68
2023-03-05T15:12:23.267Z,8.62
2023-03-05T15:14:52.620Z,8.54
2023-03-05T15:17:18.880Z,8.43
2023-03-05T15:19:45.124Z,8.36
2023-03-05T15:22:11.360Z,8.28
2023-03-05T15:24:37.643Z,8.15
2023-03-05T15:27:03.877Z,8.13
2023-03-05T15:29:30.136Z,8.08
2023-03-05T15:31:56.363Z,8.03
2023-03-05T15:34:22.897Z,7.99
2023-03-05T15:36:49.138Z,7.83
2023-03-05T15:39:15.409Z,7.27
2023-03-05T15:41:41.642Z,7.37
2023-03-05T15:44:07.876Z,7.46
2023-03-05T15:46:34.127Z,7.49
2023-03-05T15:49:00.387Z,7.48
2023-03-05T15:51:26.621Z,7.46
2023-03-05T15:53:52.840Z,7.44
2023-03-05T15:56:19.124Z,7.36
2023-03-05T15:58:45.431Z,7.29
2023-03-05T16:01:11.697Z,7.18
2023-03-05T16:03:38.019Z,7.10
2023-03-05T16:06:04.320Z,7.01
2023-03-05T16:08:30.572Z,6.97
2023-03-05T16:10:56.823Z,6.92
2023-03-05T16:13:23.075Z,6.79
2023-03-05T16:15:49.332Z,6.74
2023-03-05T16:18:15.605Z,6.59
2023-03-05T16:20:42.054Z,6.58
2023-03-05T16:23:08.307Z,6.51
2023-03-05T16:25:34.944Z,6.48
2023-03-05T16:28:01.208Z,6.39
2023-03-05T16:30:27.494Z,6.31
2023-03-05T16:32:54.000Z,6.26
2023-03-05T16:35:20.307Z,6.30
2023-03-05T16:37:46.542Z,6.35
2023-03-05T16:40:12.781Z,6.33
2023-03-05T16:42:39.064Z,5.83
2023-03-05T16:45:05.297Z,5.90
2023-03-05T16:47:31.527Z,5.94
2023-03-05T16:49:57.772Z,5.96
2023-03-05T16:52:24.021Z,5.87
2023-03-05T16:54:50.263Z,5.80
2023-03-05T16:57:16.522Z,5.78
2023-03-05T16:59:42.773Z,5.72
2023-03-05T17:02:09.051Z,5.63
2023-03-05T17:04:35.371Z,5.57
2023-03-05T17:07:01.632Z,5.59
2023-03-05T17:09:27.933Z,5.55
2023-03-05T17:11:55.024Z,5.55
2023-03-05T17:14:21.281Z,5.42
2023-03-05T17:16:47.615Z,5.41
2023-03-05T17:19:13.944Z,5.40
2023-03-05T17:21:42.318Z,5.31
2023-03-05T17:24:09.058Z,5.20
2023-03-05T17:26:35.377Z,5.16
2023-03-05T17:29:01.684Z,5.08
2023-03-05T17:31:27.990Z,5.04
2023-03-05T17:33:54.275Z,4.96
2023-03-05T17:36:20.566Z,4.95
2023-03-05T17:38:46.811Z,4.91
2023-03-05T17:41:13.075Z,4.86
2023-03-05T17:43:39.326Z,4.86
2023-03-05T17:46:05.608Z,4.79
2023-03-05T17:48:32.039Z,4.79
2023-03-05T17:50:58.350Z,4.69
2023-03-05T17:53:24.590Z,4.61
2023-03-05T17:55:50.885Z,4.53
2023-03-05T17:58:17.180Z,4.52
2023-03-05T18:00:43.437Z,4.51
2023-03-05T18:03:09.716Z,4.50
2023-03-05T18:05:36.028Z,4.42
2023-03-05T18:08:02.514Z,4.41
2023-03-05T18:10:30.660Z,4.40
2023-03-05T18:12:56.942Z,4.38
2023-03-05T18:15:23.182Z,4.24
2023-03-05T18:17:49.471Z,4.14
2023-03-05T18:20:15.795Z,4.19
2023-03-05T18:22:42.029Z,4.06
2023-03-05T18:25:08.313Z,4.08
2023-03-05T18:27:34.591Z,4.01
2023-03-05T18:30:02.805Z,4.02
2023-03-05T18:32:29.195Z,4.04
2023-03-05T18:34:55.429Z,3.98
2023-03-05T18:37:21.672Z,3.99
2023-03-05T18:39:47.930Z,3.99
2023-03-05T18:42:14.152Z,3.90
2023-03-05T18:44:40.435Z,3.70
2023-03-05T18:47:06.735Z,3.61
2023-03-05T18:49:33.001Z,3.60
2023-03-05T18:51:59.303Z,3.62
2023-03-05T18:54:25.528Z,3.61
2023-03-05T18:56:52.009Z,3.53
2023-03-05T18:59:18.304Z,3.56
2023-03-05T19:01:44.624Z,3.52
2023-03-05T19:04:10.936Z,3.52
2023-03-05T19:06:37.242Z,3.55
2023-03-05T19:09:03.561Z,3.59
2023-03-05T19:11:29.790Z,3.53
2023-03-05T19:13:56.115Z,3.41
2023-03-05T19:16:22.398Z,3.37
2023-03-05T19:18:48.638Z,3.37
2023-03-05T19:21:14.914Z,3.18
2023-03-05T19:23:41.310Z,3.22
2023-03-05T19:26:07.543Z,3.15
2023-03-05T19:28:33.779Z,3.21
2023-03-05T19:31:00.133Z,3.24
2023-03-05T19:33:26.420Z,3.17
2023-03-05T19:35:52.840Z,3.13
2023-03-05T19:38:19.112Z,3.12
2023-03-05T19:40:45.340Z,3.08
2023-03-05T19:43:11.577Z,3.08
2023-03-05T19:45:37.912Z,3.12
2023-03-05T19:48:04.154Z,3.07
2023-03-05T19:50:31.139Z,3.07
2023-03-05T19:52:58.102Z,3.08
2023-03-05T19:55:24.357Z,3.04
2023-03-05T19:57:50.592Z,3.06
2023-03-05T20:00:16.900Z,3.09
2023-03-05T20:02:43.132Z,3.07
2023-03-05T20:05:09.356Z,3.04
2023-03-05T20:07:35.596Z,3.02
2023-03-05T20:10:01.861Z,2.98
2023-03-05T20:12:28.126Z,2.88
2023-03-05T20:14:54.359Z,2.74
2023-03-05T20:17:20.612Z,2.70
2023-03-05T20:19:46.837Z,2.64
2023-03-05T20:22:13.060Z,2.71
2023-03-05T20:24:39.371Z,2.71
2023-03-05T20:27:05.632Z,2.52
2023-03-05T20:29:31.883Z,2.39
2023-03-05T20:31:58.136Z,2.37
2023-03-05T20:34:24.376Z,2.34
2023-03-05T20:36:50.633Z,2.41
2023-03-05T20:39:16.897Z,2.49
2023-03-05T20:41:43.152Z,2.56
2023-03-05T20:44:09.492Z,2.57
2023-03-05T20:46:35.789Z,2.61
2023-03-05T20:49:02.084Z,2.59
2023-03-05T20:51:28.353Z,2.53
2023-03-05T20:53:54.612Z,2.48
2023-03-05T20:56:20.844Z,2.44
2023-03-05T20:58:47.088Z,2.41
2023-03-05T21:01:13.428Z,2.45
2023-03-05T21:03:39.744Z,2.41
2023-03-05T21:06:05.995Z,2.40
2023-03-05T21:08:32.248Z,2.44
2023-03-05T21:10:58.480Z,2.42
2023-03-05T21:13:26.749Z,2.38
2023-03-05T21:15:53.062Z,2.37
2023-03-05T21:18:19.297Z,2.41
2023-03-05T21:20:45.544Z,2.42
2023-03-05T21:23:11.811Z,2.37
2023-03-05T21:25:38.064Z,2.28
2023-03-05T21:28:04.298Z,2.29
2023-03-05T21:30:30.522Z,2.30
2023-03-05T21:32:56.752Z,2.14
2023-03-05T21:35:23.070Z,2.19
2023-03-05T21:37:49.335Z,2.31
2023-03-05T21:40:15.590Z,2.26
2023-03-05T21:42:41.844Z,2.28
2023-03-05T21:45:08.084Z,2.15
2023-03-05T21:47:34.328Z,2.17
2023-03-05T21:50:00.733Z,2.10
2023-03-05T21:52:26.994Z,2.08
2023-03-05T21:54:53.232Z,2.17
2023-03-05T21:57:19.456Z,2.14
2023-03-05T21:59:45.759Z,2.08
2023-03-05T22:02:12.010Z,1.92
2023-03-05T22:04:38.284Z,1.95
2023-03-05T22:07:06.411Z,1.96
2023-03-05T22:09:32.786Z,2.08
2023-03-05T22:11:59.086Z,2.16
2023-03-05T22:14:25.668Z,2.17
2023-03-05T22:16:51.954Z,2.14
2023-03-05T22:19:18.271Z,2.12
2023-03-05T22:21:44.562Z,2.12
2023-03-05T22:24:10.816Z,2.08
2023-03-05T22:26:37.091Z,2.09
2023-03-05T22:29:03.347Z,2.13
2023-03-05T22:31:29.632Z,2.09
2023-03-05T22:33:55.866Z,2.14
2023-03-05T22:36:22.112Z,2.14
2023-03-05T22:38:48.367Z,2.13
2023-03-05T22:41:14.609Z,2.02
2023-03-05T22:43:40.869Z,2.03
2023-03-05T22:46:07.097Z,1.98
2023-03-05T22:48:33.413Z,1.96
2023-03-05T22:50:59.649Z,1.93
2023-03-05T22:53:25.872Z,1.84
2023-03-05T22:55:52.125Z,1.89
2023-03-05T22:58:18.409Z,1.87
2023-03-05T23:00:44.706Z,1.89
2023-03-05T23:03:10.991Z,1.90
2023-03-05T23:05:37.308Z,1.84
2023-03-05T23:08:03.550Z,1.85
2023-03-05T23:10:29.787Z,1.90
2023-03-05T23:12:56.025Z,1.89
2023-03-05T23:15:24.339Z,1.86
2023-03-05T23:17:50.568Z,1.86
2023-03-05T23:20:16.940Z,1.83
2023-03-05T23:22:43.243Z,1.77
2023-03-05T23:25:09.879Z,1.75
2023-03-05T23:27:36.109Z,1.76
2023-03-05T23:30:02.386Z,1.80
2023-03-05T23:32:28.689Z,1.79
2023-03-05T23:34:54.957Z,1.78
2023-03-05T23:37:21.181Z,1.69
2023-03-05T23:39:47.417Z,1.73
2023-03-05T23:42:13.680Z,1.74
2023-03-05T23:44:39.947Z,1.75
2023-03-05T23:47:06.200Z,1.66
2023-03-05T23:49:32.488Z,1.68
2023-03-05T23:51:58.830Z,1.71
2023-03-05T23:54:25.137Z,1.73
2023-03-05T23:56:51.394Z,1.78
2023-03-05T23:59:17.650Z,1.82
